GW1811 Weather Reports


time (UTC)temp
F
wind
direction
speed
knots
gust
knots
rain 1hr
in
rain 24hr
in
rain mn
in
humidity
%
barometer
mb
20260507160045 62 288 12.2 20.9 0.00 0.00 0.00 42 1012.7
20260507155527 62 294 13.9 20.9 0.00 0.00 0.00 43 1012.7
20260507155025 61 302 13.0 20.9 0.00 0.00 0.00 43 1012.7
20260507154541 62 276 13.0 20.9 0.00 0.00 0.00 42 1012.7
20260507154025 62 288 15.6 22.6 0.00 0.00 0.00 42 1012.7
20260507153525 62 286 13.9 22.6 0.00 0.00 0.00 42 1012.6
20260507153041 62 290 13.0 22.6 0.00 0.00 0.00 42 1012.8
20260507152526 62 296 14.8 23.5 0.00 0.00 0.00 44 1012.7
20260507152025 62 281 15.6 23.5 0.00 0.00 0.00 44 1012.7
20260507151541 61 278 13.9 20.0 0.00 0.00 0.00 44 1012.7
20260507151026 60 261 14.8 20.0 0.00 0.00 0.00 45 1012.8
20260507150525 60 269 13.0 20.9 0.00 0.00 0.00 46 1012.7
20260507150036 59 279 13.9 21.7 0.00 0.00 0.00 47 1012.8
20260507145525 58 283 14.8 21.7 0.00 0.00 0.00 47 1012.7
20260507145025 58 264 11.3 18.2 0.00 0.00 0.00 49 1012.7
20260507144542 56 275 10.4 15.6 0.00 0.00 0.00 53 1012.7
20260507144026 56 270 10.4 15.6 0.00 0.00 0.00 53 1012.6
20260507143525 55 279 11.3 16.5 0.00 0.00 0.00 54 1012.6
20260507143043 55 265 11.3 16.5 0.00 0.00 0.00 54 1012.5
20260507142526 54 257 12.2 15.6 0.00 0.00 0.00 55 1012.5
20260507142025 53 265 10.4 15.6 0.00 0.00 0.00 57 1012.4
20260507141539 53 280 12.2 15.6 0.00 0.00 0.00 57 1012.4
20260507141025 52 276 11.3 14.8 0.00 0.00 0.00 58 1012.4
20260507140525 52 271 9.6 13.9 0.00 0.00 0.00 59 1012.2
20260507140053 51 267 9.6 13.9 0.00 0.00 0.00 59 1012.3
20260507135525 51 279 9.6 13.0 0.00 0.00 0.00 60 1012.3
20260507135026 50 279 10.4 13.0 0.00 0.00 0.00 60 1012.4
20260507134535 50 298 8.7 13.0 0.00 0.00 0.00 62 1012.3
20260507134027 49 283 8.7 13.0 0.00 0.00 0.00 63 1012.3
20260507133527 48 271 8.7 13.0 0.00 0.00 0.00 63 1012.2
20260507133043 48 284 9.6 13.0 0.00 0.00 0.00 63 1012.1
20260507132525 47 262 9.6 13.9 0.00 0.00 0.00 64 1012.2
20260507132025 47 262 10.4 13.9 0.00 0.00 0.00 65 1012.1
20260507131546 46 232 9.6 13.0 0.00 0.00 0.00 65 1012.1
20260507131026 46 238 9.6 14.8 0.00 0.00 0.00 66 1012.1
20260507130523 45 225 9.6 14.8 0.00 0.00 0.00 66 1011.9
20260507130042 45 255 10.4 14.8 0.00 0.00 0.00 66 1011.9
20260507125525 45 253 10.4 14.8 0.00 0.00 0.00 67 1011.9
20260507125024 44 258 10.4 15.6 0.00 0.00 0.00 67 1011.9
20260507124540 43 231 10.4 15.6 0.00 0.00 0.00 68 1011.9
20260507124028 43 252 10.4 13.9 0.00 0.00 0.00 69 1011.8
20260507123525 42 260 8.7 13.0 0.00 0.00 0.00 70 1011.8
20260507123039 41 246 8.7 13.0 0.00 0.00 0.00 70 1011.8
20260507122525 41 254 8.7 13.0 0.00 0.00 0.00 70 1011.7
20260507122027 40 264 8.7 13.0 0.00 0.00 0.00 71 1011.7
20260507121545 40 242 9.6 13.0 0.00 0.00 0.00 71 1011.7
20260507121026 39 312 8.7 12.2 0.00 0.00 0.00 71 1011.6
20260507120527 39 243 8.7 13.0 0.00 0.00 0.00 71 1011.7
20260507120043 39 247 8.7 13.0 0.00 0.00 0.00 71 1011.7
20260507115527 39 257 8.7 14.8 0.00 0.00 0.00 71 1011.7
20260507115028 39 254 9.6 14.8 0.00 0.00 0.00 71 1011.6
20260507114542 39 254 9.6 13.9 0.00 0.00 0.00 71 1011.5
20260507114026 39 237 9.6 13.0 0.00 0.00 0.00 71 1011.5
20260507113525 38 252 9.6 13.0 0.00 0.00 0.00 71 1011.4
20260507113042 38 253 9.6 13.0 0.00 0.00 0.00 71 1011.5
20260507112526 38 241 9.6 13.0 0.00 0.00 0.00 71 1011.5
20260507112028 38 245 9.6 13.0 0.00 0.00 0.00 71 1011.4
20260507111545 38 250 9.6 14.8 0.00 0.00 0.00 71 1011.3
20260507111025 38 231 9.6 14.8 0.00 0.00 0.00 71 1011.5
20260507110525 38 236 9.6 14.8 0.00 0.00 0.00 70 1011.5
20260507110039 39 257 10.4 13.9 0.00 0.00 0.00 70 1011.5
20260507105525 39 232 8.7 13.9 0.00 0.00 0.00 70 1011.4
20260507105025 39 246 8.7 13.9 0.00 0.00 0.00 70 1011.3
20260507104536 39 249 9.6 14.8 0.00 0.00 0.00 70 1011.3
20260507104025 39 244 9.6 14.8 0.00 0.00 0.00 70 1011.3
20260507103525 39 254 10.4 13.9 0.00 0.00 0.00 70 1011.4
20260507103043 39 247 9.6 13.0 0.00 0.00 0.00 70 1011.4
20260507102525 39 241 7.8 12.2 0.00 0.00 0.00 71 1011.5
20260507102026 38 241 8.7 13.9 0.00 0.00 0.00 71 1011.4
20260507101558 38 238 8.7 13.9 0.00 0.00 0.00 72 1011.6
20260507101025 38 261 7.8 11.3 0.00 0.00 0.00 72 1011.6
20260507100524 37 239 7.0 11.3 0.00 0.00 0.00 72 1011.6
20260507100041 37 238 7.0 11.3 0.00 0.00 0.00 73 1011.5
20260507095525 37 247 7.8 11.3 0.00 0.00 0.00 74 1011.5
20260507095024 36 235 7.0 10.4 0.00 0.00 0.00 74 1011.4
20260507094546 36 232 5.2 9.6 0.00 0.00 0.00 73 1011.5
20260507094025 36 227 6.1 12.2 0.00 0.00 0.00 73 1011.6
20260507093525 36 232 6.1 12.2 0.00 0.00 0.00 73 1011.6
20260507093038 37 238 7.8 12.2 0.00 0.00 0.00 73 1011.8
20260507092532 37 226 7.8 13.0 0.00 0.00 0.00 73 1011.8
20260507092024 37 225 8.7 13.0 0.00 0.00 0.00 73 1011.7
20260507091553 37 231 8.7 13.9 0.00 0.00 0.00 73 1011.7
20260507091025 37 226 8.7 13.9 0.00 0.00 0.00 73 1011.7
20260507090525 37 238 9.6 13.9 0.00 0.00 0.00 73 1011.8
20260507090105 37 231 8.7 13.9 0.00 0.00 0.00 73 1011.9
20260507085524 37 229 8.7 13.9 0.00 0.00 0.00 74 1011.8
20260507085026 37 241 9.6 13.9 0.00 0.00 0.00 74 1011.8
20260507084541 36 242 9.6 13.9 0.00 0.00 0.00 75 1011.9
20260507084025 36 235 8.7 13.0 0.00 0.00 0.00 75 1012.0
20260507083525 36 240 8.7 12.2 0.00 0.00 0.00 75 1012.1
20260507083041 36 245 8.7 12.2 0.00 0.00 0.00 75 1012.2
20260507082525 36 232 8.7 12.2 0.00 0.00 0.00 75 1012.2
20260507082025 36 228 8.7 15.6 0.00 0.00 0.00 75 1012.3
20260507081550 36 234 8.7 15.6 0.00 0.00 0.00 75 1012.4
20260507081025 36 233 10.4 13.0 0.00 0.00 0.00 76 1012.5
20260507080525 36 227 8.7 13.0 0.00 0.00 0.00 76 1012.6
20260507080043 36 249 7.8 15.6 0.00 0.00 0.00 75 1012.8
20260507075523 37 241 9.6 15.6 0.00 0.01 0.00 75 1012.8
20260507075025 37 235 10.4 14.8 0.00 0.01 0.00 75 1012.8
20260507074540 37 243 10.4 16.5 0.00 0.01 0.00 75 1012.8
20260507074024 37 237 11.3 16.5 0.00 0.01 0.00 75 1012.9
20260507073525 37 240 11.3 19.1 0.00 0.01 0.00 75 1013.0
20260507073054 37 221 12.2 19.1 0.00 0.01 0.00 75 1013.0
20260507072525 37 239 12.2 18.2 0.00 0.01 0.00 74 1013.1
20260507072024 37 230 12.2 18.2 0.00 0.01 0.00 74 1013.2
20260507071539 37 238 12.2 19.1 0.00 0.01 0.00 74 1013.2
20260507071025 38 236 13.0 19.1 0.00 0.01 0.00 74 1013.3
20260507070524 38 232 13.0 16.5 0.00 0.01 0.00 74 1013.4
20260507070121 38 235 10.4 15.6 0.00 0.01 0.00 73 1013.4
20260507065526 38 235 10.4 16.5 0.00 0.01 0.00 73 1013.6
20260507065022 38 223 10.4 18.2 0.00 0.01 0.00 73 1013.6
20260507064547 38 224 11.3 18.2 0.00 0.01 0.00 73 1013.7
20260507064024 38 222 11.3 16.5 0.00 0.01 0.00 73 1013.8
20260507063523 38 232 11.3 16.5 0.00 0.01 0.00 73 1013.8
20260507063041 38 234 9.6 14.8 0.00 0.01 0.00 73 1014.0
20260507062525 38 227 9.6 16.5 0.00 0.01 0.00 73 1013.9
20260507062025 38 226 10.4 17.4 0.00 0.01 0.00 73 1014.0
20260507061542 38 227 12.2 17.4 0.00 0.01 0.00 73 1014.1
20260507061025 38 232 12.2 17.4 0.00 0.01 0.00 73 1014.2
20260507060525 38 213 12.2 16.5 0.00 0.01 0.00 74 1014.2
20260507060040 38 219 11.3 15.6 0.00 0.01 0.00 74 1014.2
20260507055525 38 220 9.6 15.6 0.00 0.01 0.01 74 1014.3
20260507055029 38 234 10.4 15.6 0.00 0.01 0.01 74 1014.2
20260507054543 38 220 9.6 15.6 0.00 0.01 0.01 74 1014.2
20260507054023 38 227 10.4 14.8 0.00 0.01 0.01 75 1014.2
20260507053526 37 217 8.7 14.8 0.00 0.01 0.01 75 1014.3
20260507053044 37 227 7.0 12.2 0.00 0.01 0.01 75 1014.4
20260507052524 37 216 7.8 12.2 0.00 0.01 0.01 74 1014.5
20260507052024 37 217 7.0 10.4 0.00 0.01 0.01 74 1014.5
20260507051545 37 225 6.1 9.6 0.00 0.01 0.01 74 1014.5
20260507051042 37 217 6.1 9.6 0.00 0.01 0.01 73 1014.6
20260507050525 37 211 6.1 8.7 0.00 0.01 0.01 72 1014.6
20260507050043 37 222 6.1 10.4 0.00 0.01 0.01 72 1014.6
20260507045526 37 225 6.1 10.4 0.00 0.01 0.01 72 1014.7
20260507045025 37 217 7.0 9.6 0.00 0.01 0.01 71 1014.8
20260507044546 37 205 6.1 9.6 0.00 0.01 0.01 71 1014.9
20260507044024 38 207 6.1 10.4 0.00 0.01 0.01 70 1014.8
20260507043525 38 209 6.1 10.4 0.00 0.01 0.01 70 1014.9
20260507043041 38 211 6.1 10.4 0.00 0.01 0.01 70 1014.9
20260507042526 37 212 6.1 8.7 0.00 0.01 0.01 70 1015.1
20260507042025 37 217 5.2 8.7 0.00 0.01 0.01 70 1015.0
20260507041539 37 214 5.2 8.7 0.00 0.01 0.01 69 1015.1
20260507041025 37 212 5.2 7.8 0.00 0.01 0.01 69 1015.2
20260507040525 37 214 5.2 7.8 0.00 0.01 0.01 68 1015.3
20260507040049 37 220 5.2 8.7 0.00 0.01 0.01 68 1015.3
20260507035524 38 213 6.1 8.7 0.00 0.01 0.01 67 1015.4
20260507035025 38 217 6.1 8.7 0.00 0.01 0.01 67 1015.4
20260507034546 38 216 6.1 8.7 0.00 0.01 0.01 66 1015.4
20260507034024 38 209 6.1 9.6 0.00 0.01 0.01 66 1015.4
20260507033524 38 207 5.2 9.6 0.00 0.01 0.01 65 1015.4
20260507033041 39 208 6.1 8.7 0.00 0.01 0.01 65 1015.4
20260507032523 39 221 6.1 8.7 0.00 0.01 0.01 65 1015.5
20260507032024 39 208 6.1 8.7 0.00 0.01 0.01 64 1015.5
20260507031542 39 223 6.1 8.7 0.00 0.01 0.01 64 1015.5
20260507031029 39 214 5.2 9.6 0.00 0.01 0.01 64 1015.6
20260507030525 39 219 6.1 9.6 0.00 0.01 0.01 64 1015.7
20260507030042 39 221 5.2 8.7 0.00 0.01 0.01 63 1015.7
20260507025522 39 220 5.2 7.8 0.00 0.01 0.01 63 1015.7
20260507025025 39 218 4.3 7.0 0.00 0.01 0.01 62 1015.6
20260507024539 40 223 4.3 7.8 0.00 0.01 0.01 61 1015.6
20260507024024 40 217 5.2 7.8 0.00 0.01 0.01 60 1015.5
20260507023527 41 209 4.3 7.8 0.00 0.01 0.01 59 1015.5
20260507023035 41 212 4.3 8.7 0.00 0.01 0.01 58 1015.5
20260507022523 42 198 5.2 8.7 0.00 0.01 0.01 57 1015.5
20260507022026 42 211 6.1 10.4 0.00 0.01 0.01 56 1015.6
20260507021534 43 215 6.1 10.4 0.00 0.01 0.01 54 1015.5
20260507021025 44 222 7.0 10.4 0.00 0.01 0.01 53 1015.6
20260507020526 44 235 7.0 10.4 0.00 0.01 0.01 53 1015.5
20260507020050 44 230 6.1 10.4 0.00 0.01 0.01 52 1015.5
20260507015525 45 228 6.1 12.2 0.00 0.02 0.01 51 1015.6
20260507015023 46 226 7.8 12.2 0.00 0.02 0.01 50 1015.6
20260507014553 46 221 7.0 11.3 0.00 0.02 0.01 49 1015.6
20260507014025 46 223 7.0 13.0 0.00 0.02 0.01 49 1015.7
20260507013526 47 239 8.7 14.8 0.00 0.02 0.01 48 1015.7
20260507013039 48 242 9.6 14.8 0.00 0.02 0.01 47 1015.6
20260507012528 48 231 9.6 17.4 0.00 0.02 0.01 46 1015.7
20260507012027 48 243 10.4 17.4 0.00 0.02 0.01 45 1015.5
20260507011539 49 241 9.6 15.6 0.00 0.02 0.01 44 1015.5
20260507011024 49 228 10.4 16.5 0.00 0.02 0.01 44 1015.5
20260507010525 49 246 11.3 16.5 0.00 0.02 0.01 44 1015.4
20260507010059 50 254 10.4 15.6 0.00 0.02 0.01 44 1015.4
20260507005527 50 242 12.2 15.6 0.00 0.07 0.01 44 1015.6
20260507005027 50 238 9.6 15.6 0.00 0.07 0.01 43 1015.5
20260507004544 51 245 11.3 18.2 0.00 0.07 0.01 43 1015.4
20260507004026 51 279 11.3 18.2 0.00 0.07 0.01 43 1015.5
20260507003526 51 248 10.4 16.5 0.00 0.07 0.01 43 1015.5
20260507003042 51 240 11.3 19.1 0.00 0.07 0.01 44 1015.4
20260507002527 51 225 12.2 19.1 0.00 0.07 0.01 43 1015.4
20260507002026 51 237 12.2 16.5 0.00 0.07 0.01 44 1015.5
20260507001550 51 236 8.7 13.9 0.00 0.07 0.01 45 1015.5
20260507001027 51 237 7.0 17.4 0.00 0.07 0.01 45 1015.8
20260507000526 52 225 10.4 17.4 0.00 0.07 0.01 44 1015.8
20260507000046 52 242 12.2 18.2 0.00 0.07 0.01 44 1015.7
20260506235525 52 254 13.0 18.2 0.00 0.07 0.01 43 1015.8
20260506235023 52 227 13.0 18.2 0.00 0.07 0.01 44 1015.7
20260506234543 51 247 8.7 15.6 0.00 0.07 0.01 46 1016.0
20260506234025 50 242 10.4 15.6 0.00 0.07 0.01 47 1016.1
20260506233525 50 239 8.7 16.5 0.00 0.07 0.01 46 1016.1
20260506233041 51 245 10.4 16.5 0.00 0.07 0.01 44 1016.1
20260506232524 52 243 10.4 16.5 0.00 0.07 0.01 44 1015.9
20260506232024 52 263 12.2 16.5 0.00 0.07 0.01 43 1016.0
20260506231542 53 263 11.3 18.2 0.00 0.07 0.01 43 1016.0
20260506231028 53 258 13.0 19.1 0.00 0.07 0.01 42 1016.0
20260506230523 53 277 14.8 19.1 0.00 0.07 0.01 42 1016.0
20260506230039 52 239 7.8 15.6 0.00 0.07 0.01 44 1016.0
20260506225525 50 231 6.1 13.9 0.00 0.07 0.01 45 1016.1
20260506225028 50 232 7.8 14.8 0.00 0.07 0.01 45 1016.3
20260506224538 51 245 11.3 20.0 0.00 0.07 0.01 43 1016.3
20260506224025 52 259 13.9 20.0 0.00 0.07 0.01 43 1016.1
20260506223524 52 233 7.0 13.0 0.00 0.07 0.01 43 1016.2
20260506223046 51 259 7.8 15.6 0.00 0.07 0.01 42 1016.4
20260506222527 53 210 7.8 15.6 0.00 0.07 0.01 42 1016.4
20260506222023 53 212 9.6 15.6 0.00 0.07 0.01 42 1016.3
20260506221544 53 256 10.4 15.6 0.00 0.07 0.01 43 1016.4
20260506221026 53 223 10.4 17.4 0.00 0.07 0.01 43 1016.4
20260506220524 53 224 10.4 17.4 0.00 0.07 0.01 43 1016.5
20260506220043 53 231 11.3 16.5 0.00 0.07 0.01 44 1016.7
20260506215526 52 231 10.4 15.6 0.00 0.09 0.01 43 1016.7
20260506215025 50 230 6.1 13.9 0.00 0.09 0.01 44 1016.9
20260506214540 50 232 9.6 15.6 0.00 0.09 0.01 45 1017.0
20260506214026 51 248 9.6 15.6 0.00 0.09 0.01 44 1017.0
20260506213523 51 263 9.6 15.6 0.00 0.09 0.01 43 1017.1
20260506213039 50 279 3.5 10.4 0.00 0.09 0.01 46 1017.2
20260506212527 49 269 2.6 13.9 0.00 0.09 0.01 46 1017.3
20260506212027 49 289 7.0 13.9 0.00 0.09 0.01 48 1017.3
20260506211546 49 306 8.7 12.2 0.00 0.09 0.01 47 1017.4
20260506211026 49 288 7.8 12.2 0.00 0.09 0.01 47 1017.5
20260506210529 49 309 6.1 14.8 0.00 0.09 0.01 47 1017.6
20260506210049 49 271 7.8 14.8 0.00 0.09 0.01 47 1017.6
20260506205526 49 273 11.3 14.8 0.00 0.10 0.01 46 1017.7
20260506205026 50 231 7.8 13.0 0.00 0.10 0.01 47 1017.8
20260506204542 51 220 8.7 13.9 0.00 0.10 0.01 45 1017.8
20260506204024 50 220 7.8 13.9 0.00 0.10 0.01 48 1018.0
20260506203524 50 240 7.8 13.0 0.00 0.10 0.01 47 1018.1
20260506203048 48 274 1.7 12.2 0.00 0.10 0.01 45 1018.1
20260506202527 49 207 4.3 15.6 0.00 0.10 0.01 45 1018.2
20260506202024 49 240 8.7 15.6 0.00 0.10 0.01 46 1018.4
20260506201555 48 217 7.0 11.3 0.00 0.10 0.01 46 1018.3
20260506201023 48 297 6.1 11.3 0.00 0.10 0.01 45 1018.4
20260506200523 48 273 1.7 13.0 0.00 0.10 0.01 46 1018.5
20260506200038 49 270 7.8 13.0 0.00 0.10 0.01 45 1018.5
20260506195524 48 269 8.7 13.0 0.00 0.10 0.01 48 1018.5
20260506195024 48 284 7.8 13.0 0.00 0.10 0.01 46 1018.5
20260506194549 48 297 7.0 13.0 0.00 0.10 0.01 46 1018.7
20260506194023 49 286 7.8 13.9 0.00 0.10 0.01 45 1018.6
20260506193525 48 304 5.2 13.9 0.00 0.10 0.01 47 1018.6
20260506193045 48 319 7.8 13.9 0.00 0.10 0.01 47 1018.7
20260506192527 49 309 7.8 11.3 0.00 0.10 0.01 47 1018.7
20260506192024 48 303 6.1 10.4 0.00 0.10 0.01 46 1018.8
20260506191543 48 303 7.0 11.3 0.00 0.10 0.01 48 1018.8
20260506191024 48 327 3.5 11.3 0.00 0.10 0.01 49 1018.8
20260506190527 48 326 7.8 11.3 0.00 0.10 0.01 48 1018.8
20260506190041 48 263 5.2 12.2 0.00 0.10 0.01 47 1018.9
20260506185524 47 241 4.3 13.9 0.00 0.10 0.01 47 1019.0
20260506185024 47 292 7.0 13.9 0.00 0.10 0.01 51 1019.1
20260506184548 46 56 2.6 11.3 0.00 0.10 0.01 49 1019.0
20260506184024 46 156 3.5 11.3 0.00 0.10 0.01 50 1019.1
20260506183524 46 250 4.3 9.6 0.00 0.10 0.01 52 1019.1
20260506183046 45 5 2.6 9.6 0.00 0.10 0.01 52 1019.3
20260506182526 46 296 7.0 9.6 0.00 0.10 0.01 54 1019.4
20260506182028 45 310 4.3 9.6 0.00 0.10 0.01 52 1019.6
20260506181542 45 355 1.7 12.2 0.00 0.10 0.01 51 1019.5
20260506181030 45 316 6.1 12.2 0.00 0.10 0.01 52 1019.6
20260506180526 46 259 6.1 9.6 0.00 0.10 0.01 52 1019.6
20260506180043 45 325 2.6 9.6 0.00 0.10 0.01 55 1019.6
20260506175528 44 298 2.6 10.4 0.00 0.10 0.01 56 1019.7
20260506175028 44 300 5.2 10.4 0.00 0.10 0.01 53 1019.7
20260506174541 45 309 7.0 13.0 0.00 0.10 0.01 54 1019.7
20260506174028 45 351 3.5 13.0 0.00 0.10 0.01 55 1019.7
20260506173526 44 0 0.9 9.6 0.00 0.10 0.01 54 1019.7
20260506173051 45 264 2.6 13.0 0.00 0.10 0.01 53 1019.8
20260506172524 45 43 6.1 13.0 0.00 0.10 0.01 56 1019.8
20260506172029 44 342 6.1 13.0 0.00 0.10 0.01 56 1019.8
20260506171549 44 313 4.3 10.4 0.00 0.10 0.01 56 1019.9
20260506171024 44 302 5.2 11.3 0.00 0.10 0.01 57 1019.9
20260506170527 43 16 5.2 11.3 0.00 0.10 0.01 54 1020.0
20260506170045 43 294 7.0 10.4 0.00 0.10 0.01 56 1020.0
20260506165528 44 267 6.1 10.4 0.00 0.10 0.01 57 1020.0
20260506165027 43 329 5.2 10.4 0.00 0.10 0.01 56 1020.0
20260506164543 43 15 6.1 11.3 0.00 0.10 0.01 57 1019.9
20260506164024 43 288 7.0 11.3 0.00 0.10 0.01 57 1019.9
20260506163527 42 327 5.2 11.3 0.00 0.10 0.01 57 1020.0
20260506163058 42 342 7.0 11.3 0.00 0.10 0.01 57 1019.9
20260506162527 42 292 7.0 11.3 0.00 0.10 0.01 55 1020.0
20260506162026 42 22 1.7 12.2 0.00 0.10 0.01 60 1020.0
20260506161544 42 333 7.0 12.2 0.00 0.10 0.01 62 1020.0
20260506161027 41 296 8.7 12.2 0.00 0.10 0.01 62 1019.9
20260506160527 42 328 4.3 10.4 0.00 0.10 0.01 63 1019.7